createdAt,value
2022-08-11T00:00:20.858Z,16.99
2022-08-11T00:01:20.838Z,16.92
2022-08-11T00:02:20.926Z,16.90
2022-08-11T00:03:20.897Z,16.87
2022-08-11T00:04:20.806Z,16.85
2022-08-11T00:05:20.797Z,16.82
2022-08-11T00:06:20.771Z,16.81
2022-08-11T00:07:20.758Z,16.70
2022-08-11T00:08:20.751Z,16.72
2022-08-11T00:09:20.729Z,16.70
2022-08-11T00:10:20.730Z,16.78
2022-08-11T00:11:20.714Z,16.80
2022-08-11T00:12:20.705Z,16.80
2022-08-11T00:13:20.682Z,16.77
2022-08-11T00:14:20.667Z,16.78
2022-08-11T00:15:20.651Z,16.78
2022-08-11T00:16:20.635Z,16.77
2022-08-11T00:17:20.624Z,16.73
2022-08-11T00:18:20.617Z,16.69
2022-08-11T00:20:11.883Z,16.69
2022-08-11T00:20:21.603Z,16.80
2022-08-11T00:21:20.567Z,16.65
2022-08-11T00:22:21.609Z,16.69
2022-08-11T00:23:20.546Z,16.70
2022-08-11T00:24:20.541Z,16.67
2022-08-11T00:25:20.523Z,16.66
2022-08-11T00:26:20.507Z,16.69
2022-08-11T00:27:20.494Z,16.63
2022-08-11T00:28:20.482Z,16.59
2022-08-11T00:29:20.464Z,16.59
2022-08-11T00:30:20.453Z,16.63
2022-08-11T00:31:20.432Z,16.67
2022-08-11T00:32:20.427Z,16.63
2022-08-11T00:33:20.404Z,16.65
2022-08-11T00:34:20.402Z,16.57
2022-08-11T00:35:51.317Z,16.51
2022-08-11T00:36:25.434Z,16.54
2022-08-11T00:37:20.357Z,16.57
2022-08-11T00:38:20.345Z,16.47
2022-08-11T00:39:20.467Z,16.48
2022-08-11T00:40:20.323Z,16.44
2022-08-11T00:41:20.307Z,16.40
2022-08-11T00:42:20.293Z,16.42
2022-08-11T00:43:21.062Z,16.27
2022-08-11T00:44:20.261Z,16.29
2022-08-11T00:45:20.253Z,16.33
2022-08-11T00:46:20.235Z,16.27
2022-08-11T00:47:20.219Z,16.27
2022-08-11T00:48:20.210Z,16.40
2022-08-11T00:49:20.193Z,16.27
2022-08-11T00:50:20.183Z,16.27
2022-08-11T00:51:20.167Z,16.27
2022-08-11T00:52:20.154Z,16.32
2022-08-11T00:53:20.141Z,16.34
2022-08-11T00:54:20.124Z,16.29
2022-08-11T00:55:20.108Z,16.18
2022-08-11T00:56:20.098Z,16.22
2022-08-11T00:57:36.942Z,16.22
2022-08-11T00:58:22.508Z,16.16
2022-08-11T00:59:35.566Z,16.32
2022-08-11T01:00:20.048Z,16.29
2022-08-11T01:01:20.151Z,16.13
2022-08-11T01:02:20.019Z,16.23
2022-08-11T01:03:20.010Z,16.23
2022-08-11T01:04:19.995Z,16.23
2022-08-11T01:05:19.978Z,16.16
2022-08-11T01:06:19.968Z,16.08
2022-08-11T01:08:00.433Z,16.08
2022-08-11T01:08:19.934Z,16.07
2022-08-11T01:09:22.091Z,16.08
2022-08-11T01:10:19.910Z,16.07
2022-08-11T01:11:19.891Z,16.07
2022-08-11T01:12:19.876Z,15.98
2022-08-11T01:13:19.862Z,16.07
2022-08-11T01:14:19.856Z,16.04
2022-08-11T01:15:19.841Z,15.95
2022-08-11T01:16:19.836Z,16.04
2022-08-11T01:17:19.810Z,16.01
2022-08-11T01:18:19.801Z,15.93
2022-08-11T01:19:19.785Z,15.98
2022-08-11T01:20:45.543Z,15.96
2022-08-11T01:21:19.753Z,15.89
2022-08-11T01:22:19.747Z,15.86
2022-08-11T01:23:19.724Z,15.88
2022-08-11T01:24:19.716Z,15.86
2022-08-11T01:25:19.699Z,15.88
2022-08-11T01:26:19.694Z,15.81
2022-08-11T01:27:20.101Z,15.88
2022-08-11T01:28:19.669Z,15.80
2022-08-11T01:29:19.661Z,15.73
2022-08-11T01:30:19.636Z,15.91
2022-08-11T01:31:19.623Z,15.78
2022-08-11T01:32:19.606Z,15.80
2022-08-11T01:33:19.596Z,15.88
2022-08-11T01:34:19.587Z,15.85
2022-08-11T01:35:19.564Z,15.81
2022-08-11T01:36:19.559Z,15.77
2022-08-11T01:37:19.539Z,15.81
2022-08-11T01:38:19.532Z,15.71
2022-08-11T01:39:19.538Z,15.73
2022-08-11T01:40:19.508Z,15.74
2022-08-11T01:41:19.484Z,15.66
2022-08-11T01:42:19.479Z,15.66
2022-08-11T01:43:19.455Z,15.62
2022-08-11T01:44:19.453Z,15.62
2022-08-11T01:45:19.433Z,15.59
2022-08-11T01:46:19.426Z,15.59
2022-08-11T01:47:19.402Z,15.49
2022-08-11T01:48:19.395Z,15.56
2022-08-11T01:50:05.771Z,15.59
2022-08-11T01:50:19.364Z,15.60
2022-08-11T01:51:19.351Z,15.59
2022-08-11T01:52:19.337Z,15.56
2022-08-11T01:53:19.330Z,15.59
2022-08-11T01:54:19.312Z,15.56
2022-08-11T01:55:19.300Z,15.52
2022-08-11T01:56:19.282Z,15.53
2022-08-11T01:57:19.271Z,15.49
2022-08-11T01:58:19.260Z,15.58
2022-08-11T01:59:19.246Z,15.51
2022-08-11T02:00:19.337Z,15.56
2022-08-11T02:01:19.255Z,15.48
2022-08-11T02:02:21.504Z,15.41
2022-08-11T02:03:19.188Z,15.40
2022-08-11T02:04:19.176Z,15.40
2022-08-11T02:05:19.161Z,15.38
2022-08-11T02:06:19.153Z,15.30
2022-08-11T02:07:19.132Z,15.35
2022-08-11T02:08:19.129Z,15.33
2022-08-11T02:09:19.106Z,15.25
2022-08-11T02:10:19.098Z,15.23
2022-08-11T02:11:19.075Z,15.33
2022-08-11T02:12:19.070Z,15.33
2022-08-11T02:13:30.270Z,15.34
2022-08-11T02:14:19.048Z,15.22
2022-08-11T02:15:19.022Z,15.25
2022-08-11T02:16:19.018Z,15.27
2022-08-11T02:17:18.999Z,15.25
2022-08-11T02:18:18.990Z,15.23
2022-08-11T02:19:18.973Z,15.25
2022-08-11T02:20:18.959Z,15.31
2022-08-11T02:21:18.948Z,15.30
2022-08-11T02:22:18.944Z,15.22
2022-08-11T02:24:00.552Z,15.23
2022-08-11T02:24:19.925Z,15.27
2022-08-11T02:25:18.889Z,15.19
2022-08-11T02:26:18.881Z,15.22
2022-08-11T02:27:18.864Z,15.22
2022-08-11T02:28:18.854Z,15.20
2022-08-11T02:29:18.843Z,15.20
2022-08-11T02:30:18.823Z,15.15
2022-08-11T02:32:11.001Z,15.16
2022-08-11T02:32:28.903Z,15.19
2022-08-11T02:33:18.779Z,15.13
2022-08-11T02:34:18.778Z,15.12
2022-08-11T02:35:18.757Z,15.18
2022-08-11T02:36:18.745Z,15.22
2022-08-11T02:37:22.025Z,15.18
2022-08-11T02:38:18.720Z,15.11
2022-08-11T02:39:18.940Z,15.18
2022-08-11T02:40:18.694Z,15.11
2022-08-11T02:41:18.675Z,15.16
2022-08-11T02:42:35.094Z,15.05
2022-08-11T02:43:19.670Z,15.11
2022-08-11T02:44:18.657Z,15.13
2022-08-11T02:45:18.622Z,15.03
2022-08-11T02:46:18.756Z,15.00
2022-08-11T02:47:18.598Z,15.03
2022-08-11T02:48:18.580Z,14.93
2022-08-11T02:49:18.562Z,14.87
2022-08-11T02:50:18.557Z,14.86
2022-08-11T02:51:21.865Z,14.82
2022-08-11T02:52:18.536Z,14.83
2022-08-11T02:53:18.511Z,14.75
2022-08-11T02:54:18.499Z,14.91
2022-08-11T02:55:56.285Z,14.85
2022-08-11T02:56:18.471Z,14.87
2022-08-11T02:57:18.452Z,14.83
2022-08-11T02:58:19.967Z,14.86
2022-08-11T02:59:18.432Z,14.87
2022-08-11T03:00:18.416Z,14.74
2022-08-11T03:01:18.473Z,14.79
2022-08-11T03:02:18.418Z,14.79
2022-08-11T03:03:18.391Z,14.80
2022-08-11T03:04:18.364Z,14.67
2022-08-11T03:05:18.347Z,14.79
2022-08-11T03:06:18.338Z,14.74
2022-08-11T03:07:28.911Z,14.67
2022-08-11T03:08:18.309Z,14.71
2022-08-11T03:09:18.293Z,14.61
2022-08-11T03:10:18.295Z,14.59
2022-08-11T03:11:18.267Z,14.64
2022-08-11T03:12:18.261Z,14.69
2022-08-11T03:13:18.242Z,14.59
2022-08-11T03:14:18.231Z,14.66
2022-08-11T03:15:18.214Z,14.54
2022-08-11T03:16:18.205Z,14.52
2022-08-11T03:17:18.191Z,14.59
2022-08-11T03:18:18.173Z,14.53
2022-08-11T03:19:18.154Z,14.64
2022-08-11T03:20:18.148Z,14.60
2022-08-11T03:21:18.127Z,14.64
2022-08-11T03:22:18.129Z,14.71
2022-08-11T03:23:20.080Z,14.67
2022-08-11T03:24:18.099Z,14.72
2022-08-11T03:25:18.078Z,14.64
2022-08-11T03:26:18.064Z,14.56
2022-08-11T03:27:18.047Z,14.61
2022-08-11T03:28:18.037Z,14.60
2022-08-11T03:29:18.313Z,14.63
2022-08-11T03:30:18.012Z,14.57
2022-08-11T03:31:17.992Z,14.54
2022-08-11T03:32:17.985Z,14.61
2022-08-11T03:33:17.972Z,14.63
2022-08-11T03:34:17.964Z,14.46
2022-08-11T03:35:21.542Z,14.44
2022-08-11T03:36:17.934Z,14.48
2022-08-11T03:37:18.404Z,14.45
2022-08-11T03:38:17.904Z,14.39
2022-08-11T03:39:17.962Z,14.31
2022-08-11T03:40:17.879Z,14.27
2022-08-11T03:42:01.997Z,14.39
2022-08-11T03:42:17.846Z,14.34
2022-08-11T03:43:17.935Z,14.29
2022-08-11T03:44:17.824Z,14.24
2022-08-11T03:45:17.806Z,14.38
2022-08-11T03:46:17.799Z,14.34
2022-08-11T03:47:17.779Z,14.30
2022-08-11T03:48:17.770Z,14.21
2022-08-11T03:49:17.752Z,14.21
2022-08-11T03:50:17.739Z,14.23
2022-08-11T03:51:17.719Z,14.13
2022-08-11T03:52:17.708Z,14.16
2022-08-11T03:53:17.690Z,14.20
2022-08-11T03:54:17.684Z,14.19
2022-08-11T03:55:17.671Z,14.23
2022-08-11T03:56:17.656Z,14.16
2022-08-11T03:57:17.648Z,14.20
2022-08-11T03:58:17.620Z,14.24
2022-08-11T03:59:17.627Z,14.21
2022-08-11T04:00:17.606Z,14.11
2022-08-11T04:01:17.608Z,14.20
2022-08-11T04:02:17.568Z,14.19
2022-08-11T04:03:17.555Z,14.20
2022-08-11T04:04:17.538Z,14.36
2022-08-11T04:05:17.530Z,14.26
2022-08-11T04:06:17.517Z,14.31
2022-08-11T04:07:17.895Z,14.20
2022-08-11T04:08:17.484Z,14.27
2022-08-11T04:09:17.474Z,14.34
2022-08-11T04:10:17.456Z,14.23
2022-08-11T04:11:17.446Z,14.26
2022-08-11T04:12:17.430Z,14.31
2022-08-11T04:13:17.422Z,14.31
2022-08-11T04:14:17.405Z,14.41
2022-08-11T04:15:17.423Z,14.34
2022-08-11T04:16:17.384Z,14.34
2022-08-11T04:17:17.370Z,14.31
2022-08-11T04:18:17.359Z,14.34
2022-08-11T04:19:17.342Z,14.23
2022-08-11T04:20:17.339Z,14.17
2022-08-11T04:21:17.312Z,14.16
2022-08-11T04:22:17.290Z,14.16
2022-08-11T04:24:35.011Z,14.17
2022-08-11T04:24:38.437Z,14.17
2022-08-11T04:25:18.327Z,14.24
2022-08-11T04:26:18.825Z,14.11
2022-08-11T04:27:17.231Z,14.17
2022-08-11T04:28:28.391Z,14.13
2022-08-11T04:29:17.204Z,14.08
2022-08-11T04:30:17.181Z,14.08
2022-08-11T04:31:44.056Z,14.19
2022-08-11T04:32:17.154Z,14.09
2022-08-11T04:33:17.142Z,14.11
2022-08-11T04:34:17.130Z,14.13
2022-08-11T04:35:17.120Z,14.09
2022-08-11T04:36:17.101Z,14.13
2022-08-11T04:37:17.092Z,14.34
2022-08-11T04:38:17.079Z,14.19
2022-08-11T04:39:17.110Z,14.24
2022-08-11T04:40:17.050Z,14.11
2022-08-11T04:41:17.042Z,14.16
2022-08-11T04:42:17.025Z,14.02
2022-08-11T04:43:17.012Z,13.99
2022-08-11T04:44:16.995Z,13.93
2022-08-11T04:45:16.983Z,13.87
2022-08-11T04:46:16.964Z,13.88
2022-08-11T04:47:16.956Z,13.88
2022-08-11T04:48:17.136Z,13.91
2022-08-11T04:49:25.654Z,13.87
2022-08-11T04:50:16.912Z,13.87
2022-08-11T04:51:17.791Z,13.96
2022-08-11T04:52:16.881Z,13.96
2022-08-11T04:53:16.873Z,13.93
2022-08-11T04:54:16.860Z,14.02
2022-08-11T04:55:16.851Z,14.06
2022-08-11T04:56:16.834Z,14.05
2022-08-11T04:57:16.825Z,14.04
2022-08-11T04:58:16.802Z,14.09
2022-08-11T04:59:16.788Z,14.11
2022-08-11T05:00:16.772Z,14.13
2022-08-11T05:01:16.801Z,14.17
2022-08-11T05:02:17.664Z,14.16
2022-08-11T05:03:16.741Z,14.08
2022-08-11T05:04:16.722Z,14.13
2022-08-11T05:05:16.714Z,14.09
2022-08-11T05:06:16.695Z,14.26
2022-08-11T05:07:16.685Z,14.20
2022-08-11T05:08:18.573Z,14.11
2022-08-11T05:09:16.658Z,14.12
2022-08-11T05:10:16.637Z,14.17
2022-08-11T05:11:16.624Z,14.21
2022-08-11T05:12:16.613Z,14.23
2022-08-11T05:13:16.605Z,14.21
2022-08-11T05:14:16.587Z,14.20
2022-08-11T05:15:16.576Z,14.16
2022-08-11T05:16:16.565Z,14.34
2022-08-11T05:17:16.561Z,14.24
2022-08-11T05:18:16.531Z,14.39
2022-08-11T05:19:16.518Z,14.30
2022-08-11T05:20:16.502Z,14.31
2022-08-11T05:21:16.491Z,14.45
2022-08-11T05:22:16.473Z,14.45
2022-08-11T05:23:16.463Z,14.53
2022-08-11T05:24:16.447Z,14.59
2022-08-11T05:26:46.148Z,14.78
2022-08-11T05:26:47.303Z,14.67
2022-08-11T05:27:17.435Z,14.74
2022-08-11T05:28:16.395Z,14.93
2022-08-11T05:29:19.574Z,14.97
2022-08-11T05:30:16.365Z,15.01
2022-08-11T05:31:16.361Z,15.07
2022-08-11T05:32:16.339Z,15.07
2022-08-11T05:33:16.328Z,15.13
2022-08-11T05:34:16.320Z,15.13
2022-08-11T05:35:59.802Z,15.23
2022-08-11T05:36:16.289Z,15.23
2022-08-11T05:37:26.725Z,15.35
2022-08-11T05:38:17.286Z,15.46
2022-08-11T05:39:16.298Z,15.43
2022-08-11T05:40:16.229Z,15.53
2022-08-11T05:41:16.219Z,15.58
2022-08-11T05:42:20.866Z,15.58
2022-08-11T05:43:16.194Z,15.77
2022-08-11T05:44:21.628Z,15.81
2022-08-11T05:45:17.193Z,15.86
2022-08-11T05:46:16.157Z,15.96
2022-08-11T05:47:16.150Z,16.11
2022-08-11T05:48:16.128Z,16.13
2022-08-11T05:49:16.119Z,16.27
2022-08-11T05:50:16.094Z,16.30
2022-08-11T05:51:16.356Z,16.45
2022-08-11T05:52:16.465Z,16.52
2022-08-11T05:53:16.120Z,16.63
2022-08-11T05:54:28.558Z,16.65
2022-08-11T05:55:17.047Z,16.75
2022-08-11T05:56:16.013Z,16.84
2022-08-11T05:57:48.470Z,16.78
2022-08-11T05:58:17.012Z,16.98
2022-08-11T05:59:15.980Z,17.00
2022-08-11T06:00:15.968Z,17.07
2022-08-11T06:01:15.997Z,17.03
2022-08-11T06:02:15.934Z,17.28
2022-08-11T06:03:15.921Z,17.24
2022-08-11T06:04:15.916Z,17.33
2022-08-11T06:05:15.891Z,17.42
2022-08-11T06:06:15.880Z,17.39
2022-08-11T06:07:15.868Z,17.57
2022-08-11T06:08:15.855Z,17.57
2022-08-11T06:09:15.845Z,17.68
2022-08-11T06:10:15.827Z,17.76
2022-08-11T06:11:15.815Z,17.89
2022-08-11T06:12:15.799Z,17.95
2022-08-11T06:13:15.791Z,18.10
2022-08-11T06:14:15.881Z,18.13
2022-08-11T06:15:15.759Z,18.19
2022-08-11T06:16:15.765Z,18.26
2022-08-11T06:17:15.736Z,18.34
2022-08-11T06:18:15.712Z,18.46
2022-08-11T06:19:15.708Z,18.60
2022-08-11T06:20:15.687Z,18.68
2022-08-11T06:21:15.675Z,18.75
2022-08-11T06:22:15.667Z,18.79
2022-08-11T06:23:15.654Z,18.97
2022-08-11T06:24:15.637Z,19.12
2022-08-11T06:25:15.627Z,19.25
2022-08-11T06:26:15.610Z,19.45
2022-08-11T06:27:15.601Z,19.49
2022-08-11T06:28:20.376Z,19.67
2022-08-11T06:29:15.576Z,19.78
2022-08-11T06:30:15.552Z,20.00
2022-08-11T06:31:15.544Z,19.95
2022-08-11T06:32:15.525Z,20.17
2022-08-11T06:33:15.517Z,20.20
2022-08-11T06:34:27.387Z,20.12
2022-08-11T06:35:16.514Z,20.25
2022-08-11T06:36:15.474Z,20.22
2022-08-11T06:37:15.467Z,20.27
2022-08-11T06:38:15.445Z,20.42
2022-08-11T06:39:15.468Z,20.46
2022-08-11T06:40:15.418Z,20.61
2022-08-11T06:41:15.410Z,20.64
2022-08-11T06:42:15.392Z,20.76
2022-08-11T06:43:15.380Z,20.76
2022-08-11T06:44:15.366Z,20.78
2022-08-11T06:45:15.353Z,20.81
2022-08-11T06:46:28.169Z,20.88
2022-08-11T06:47:15.333Z,20.85
2022-08-11T06:48:15.318Z,20.76
2022-08-11T06:49:15.307Z,20.78
2022-08-11T06:50:15.293Z,20.85
2022-08-11T06:51:15.281Z,20.93
2022-08-11T06:52:34.943Z,20.94
2022-08-11T06:53:15.263Z,21.01
2022-08-11T06:54:15.235Z,21.15
2022-08-11T06:55:54.801Z,21.28
2022-08-11T06:56:16.233Z,21.21
2022-08-11T06:57:31.253Z,21.16
2022-08-11T06:58:16.203Z,21.24
2022-08-11T06:59:15.171Z,21.28
2022-08-11T07:00:15.153Z,21.33
2022-08-11T07:01:15.215Z,21.64
2022-08-11T07:02:15.131Z,21.98
2022-08-11T07:03:15.121Z,22.19
2022-08-11T07:04:15.104Z,22.33
2022-08-11T07:05:15.095Z,22.48
2022-08-11T07:06:15.078Z,22.61
2022-08-11T07:07:15.070Z,22.59
2022-08-11T07:08:34.469Z,22.42
2022-08-11T07:09:15.041Z,22.39
2022-08-11T07:10:15.025Z,22.49
2022-08-11T07:11:15.017Z,22.46
2022-08-11T07:12:14.998Z,22.45
2022-08-11T07:13:38.238Z,22.49
2022-08-11T07:14:14.970Z,22.61
2022-08-11T07:15:14.962Z,22.56
2022-08-11T07:16:14.945Z,22.49
2022-08-11T07:17:14.958Z,22.72
2022-08-11T07:18:14.916Z,22.64
2022-08-11T07:19:16.635Z,22.69
2022-08-11T07:20:14.886Z,22.49
2022-08-11T07:22:00.244Z,22.57
2022-08-11T07:22:15.882Z,22.61
2022-08-11T07:23:14.851Z,22.64
2022-08-11T07:24:14.839Z,22.74
2022-08-11T07:25:14.824Z,22.81
2022-08-11T07:26:14.810Z,22.88
2022-08-11T07:27:14.802Z,23.06
2022-08-11T07:28:14.786Z,23.09
2022-08-11T07:29:14.776Z,23.23
2022-08-11T07:30:14.772Z,23.31
2022-08-11T07:31:14.749Z,23.60
2022-08-11T07:32:14.729Z,23.89
2022-08-11T07:34:04.841Z,24.52
2022-08-11T07:34:18.116Z,25.20
2022-08-11T07:35:14.698Z,25.69
2022-08-11T07:36:14.673Z,26.06
2022-08-11T07:37:14.668Z,26.42
2022-08-11T07:38:17.204Z,26.97
2022-08-11T07:39:14.686Z,26.86
2022-08-11T07:40:14.628Z,27.12
2022-08-11T07:41:14.614Z,27.46
2022-08-11T07:42:14.595Z,27.52
2022-08-11T07:43:14.581Z,27.76
2022-08-11T07:44:14.567Z,28.14
2022-08-11T07:45:14.560Z,28.20
2022-08-11T07:46:14.541Z,28.36
2022-08-11T07:47:14.530Z,27.78
2022-08-11T07:48:14.526Z,27.71
2022-08-11T07:49:14.505Z,27.88
2022-08-11T07:50:14.501Z,28.06
2022-08-11T07:51:14.542Z,28.30
2022-08-11T07:52:14.469Z,28.64
2022-08-11T07:53:14.461Z,28.69
2022-08-11T07:54:16.893Z,28.79
2022-08-11T07:55:14.434Z,28.73
2022-08-11T07:56:14.557Z,28.83
2022-08-11T07:58:10.238Z,28.80
2022-08-11T07:58:20.136Z,28.72
2022-08-11T07:59:14.400Z,28.79
2022-08-11T08:00:14.361Z,28.91
2022-08-11T08:01:21.793Z,28.95
2022-08-11T08:02:15.475Z,29.05
2022-08-11T08:03:14.324Z,29.37
2022-08-11T08:04:14.307Z,29.57
2022-08-11T08:05:14.302Z,29.70
2022-08-11T08:06:28.664Z,29.85
2022-08-11T08:07:14.279Z,29.91
2022-08-11T08:08:14.261Z,29.47
2022-08-11T08:09:14.258Z,29.05
2022-08-11T08:10:16.181Z,29.62
2022-08-11T08:11:14.224Z,29.89
2022-08-11T08:12:14.219Z,30.29
2022-08-11T08:13:14.194Z,30.61
2022-08-11T08:14:14.197Z,30.59
2022-08-11T08:15:14.168Z,30.81
2022-08-11T08:16:14.158Z,30.85
2022-08-11T08:17:14.139Z,30.75
2022-08-11T08:18:26.305Z,31.09
2022-08-11T08:19:14.115Z,31.23
2022-08-11T08:20:14.106Z,31.47
2022-08-11T08:21:14.090Z,31.34
2022-08-11T08:22:38.742Z,31.46
2022-08-11T08:23:14.071Z,31.38
2022-08-11T08:24:14.065Z,31.42
2022-08-11T08:25:14.049Z,31.67
2022-08-11T08:26:16.994Z,31.60
2022-08-11T08:27:14.027Z,31.65
2022-08-11T08:28:14.041Z,31.92
2022-08-11T08:29:14.011Z,31.59
2022-08-11T08:30:13.985Z,31.74
2022-08-11T08:31:13.970Z,32.19
2022-08-11T08:32:13.959Z,32.34
2022-08-11T08:33:13.946Z,32.32
2022-08-11T08:34:13.937Z,32.71
2022-08-11T08:35:13.921Z,32.73
2022-08-11T08:36:13.916Z,33.00
2022-08-11T08:37:16.182Z,33.20
2022-08-11T08:38:13.886Z,33.44
2022-08-11T08:39:13.922Z,32.80
2022-08-11T08:40:13.873Z,32.69
2022-08-11T08:41:16.375Z,32.78
2022-08-11T08:42:13.840Z,32.62
2022-08-11T08:43:13.826Z,32.28
2022-08-11T08:44:37.762Z,32.10
2022-08-11T08:45:14.820Z,32.12
2022-08-11T08:46:13.799Z,32.66
2022-08-11T08:47:13.782Z,33.18
2022-08-11T08:48:13.775Z,33.53
2022-08-11T08:49:13.757Z,33.70
2022-08-11T08:50:16.585Z,33.90
2022-08-11T08:51:13.740Z,34.26
2022-08-11T08:52:30.794Z,34.30
2022-08-11T08:53:14.732Z,34.27
2022-08-11T08:54:13.696Z,33.65
2022-08-11T08:55:13.684Z,32.63
2022-08-11T08:56:13.673Z,32.85
2022-08-11T08:57:13.656Z,33.44
2022-08-11T08:58:13.649Z,33.57
2022-08-11T08:59:13.633Z,33.82
2022-08-11T09:00:14.495Z,34.06
2022-08-11T09:01:13.690Z,34.19
2022-08-11T09:02:13.604Z,34.30
2022-08-11T09:03:39.097Z,34.33
2022-08-11T09:04:18.898Z,34.16
2022-08-11T09:05:13.570Z,33.90
2022-08-11T09:06:13.562Z,34.34
2022-08-11T09:07:13.546Z,34.76
2022-08-11T09:08:13.536Z,34.60
2022-08-11T09:09:13.521Z,34.26
2022-08-11T09:10:13.516Z,33.68
2022-08-11T09:11:14.155Z,33.60
2022-08-11T09:12:13.484Z,33.82
2022-08-11T09:13:13.471Z,33.99
2022-08-11T09:14:15.234Z,34.18
2022-08-11T09:15:13.450Z,33.90
2022-08-11T09:16:13.445Z,33.77
2022-08-11T09:17:13.428Z,33.87
2022-08-11T09:18:13.426Z,33.50
2022-08-11T09:19:13.413Z,33.59
2022-08-11T09:20:13.400Z,33.63
2022-08-11T09:21:13.396Z,33.75
2022-08-11T09:22:13.403Z,34.05
2022-08-11T09:24:22.088Z,34.14
2022-08-11T09:25:13.347Z,34.24
2022-08-11T09:26:13.334Z,34.48
2022-08-11T09:27:13.318Z,34.61
2022-08-11T09:28:13.314Z,34.43
2022-08-11T09:29:13.295Z,34.27
2022-08-11T09:30:13.288Z,34.30
2022-08-11T09:31:13.611Z,34.28
2022-08-11T09:32:13.266Z,34.49
2022-08-11T09:33:13.246Z,34.76
2022-08-11T09:34:13.233Z,34.84
2022-08-11T09:35:13.219Z,34.33
2022-08-11T09:36:13.211Z,34.42
2022-08-11T09:37:13.199Z,34.45
2022-08-11T09:38:13.192Z,34.53
2022-08-11T09:39:13.238Z,34.67
2022-08-11T09:40:13.168Z,34.45
2022-08-11T09:41:13.154Z,34.80
2022-08-11T09:42:16.705Z,34.90
2022-08-11T09:43:14.157Z,34.69
2022-08-11T09:44:13.129Z,34.86
2022-08-11T09:45:13.111Z,34.83
2022-08-11T09:46:13.107Z,34.60
2022-08-11T09:47:13.086Z,34.73
2022-08-11T09:48:13.075Z,34.65
2022-08-11T09:49:13.069Z,34.42
2022-08-11T09:50:13.069Z,34.65
2022-08-11T09:51:13.048Z,35.07
2022-08-11T09:52:13.046Z,35.24
2022-08-11T09:53:36.511Z,34.98
2022-08-11T09:54:14.040Z,34.93
2022-08-11T09:55:13.002Z,35.21
2022-08-11T09:56:12.994Z,35.24
2022-08-11T09:57:12.981Z,35.78
2022-08-11T09:58:12.965Z,35.59
2022-08-11T09:59:12.956Z,35.22
2022-08-11T10:00:14.187Z,35.25
2022-08-11T10:01:12.953Z,35.18
2022-08-11T10:02:12.926Z,35.12
2022-08-11T10:03:12.910Z,35.29
2022-08-11T10:04:12.901Z,35.56
2022-08-11T10:05:12.883Z,35.64
2022-08-11T10:06:13.249Z,35.50
2022-08-11T10:07:12.870Z,35.36
2022-08-11T10:08:12.859Z,34.63
2022-08-11T10:09:12.846Z,34.46
2022-08-11T10:10:12.851Z,34.65
2022-08-11T10:11:12.825Z,34.49
2022-08-11T10:12:12.817Z,34.86
2022-08-11T10:14:12.249Z,35.27
2022-08-11T10:14:32.760Z,35.55
2022-08-11T10:15:12.775Z,35.58
2022-08-11T10:16:15.279Z,35.74
2022-08-11T10:17:12.756Z,35.96
2022-08-11T10:18:12.749Z,35.68
2022-08-11T10:19:12.729Z,35.40
2022-08-11T10:20:12.720Z,35.24
2022-08-11T10:21:12.707Z,35.07
2022-08-11T10:22:12.701Z,34.93
2022-08-11T10:23:12.692Z,34.91
2022-08-11T10:24:12.687Z,34.90
2022-08-11T10:25:12.667Z,34.73
2022-08-11T10:26:12.658Z,34.60
2022-08-11T10:27:12.643Z,34.40
2022-08-11T10:28:29.109Z,34.15
2022-08-11T10:29:13.866Z,34.23
2022-08-11T10:30:12.635Z,34.14
2022-08-11T10:31:13.662Z,34.52
2022-08-11T10:32:12.589Z,34.75
2022-08-11T10:33:12.577Z,34.76
2022-08-11T10:34:12.574Z,35.03
2022-08-11T10:35:12.553Z,34.50
2022-08-11T10:36:16.685Z,34.37
2022-08-11T10:37:15.024Z,34.73
2022-08-11T10:38:12.521Z,35.15
2022-08-11T10:39:12.542Z,35.71
2022-08-11T10:40:12.498Z,35.24
2022-08-11T10:41:12.484Z,35.44
2022-08-11T10:42:25.537Z,35.21
2022-08-11T10:43:12.463Z,35.06
2022-08-11T10:44:12.452Z,34.30
2022-08-11T10:45:12.444Z,33.74
2022-08-11T10:46:12.443Z,33.57
2022-08-11T10:47:12.421Z,34.15
2022-08-11T10:48:15.552Z,34.71
2022-08-11T10:49:12.397Z,34.71
2022-08-11T10:50:12.390Z,34.16
2022-08-11T10:51:12.372Z,34.15
2022-08-11T10:52:12.364Z,34.34
2022-08-11T10:53:12.362Z,34.52
2022-08-11T10:54:12.926Z,34.69
2022-08-11T10:55:12.338Z,34.99
2022-08-11T10:56:12.328Z,34.83
2022-08-11T10:57:12.314Z,35.09
2022-08-11T10:58:12.304Z,35.06
2022-08-11T10:59:12.289Z,35.36
2022-08-11T11:00:12.295Z,34.36
2022-08-11T11:01:12.303Z,34.14
2022-08-11T11:02:12.251Z,33.70
2022-08-11T11:03:23.785Z,33.87
2022-08-11T11:04:12.228Z,34.34
2022-08-11T11:05:12.233Z,34.67
2022-08-11T11:06:27.904Z,35.36
2022-08-11T11:07:12.193Z,36.00
2022-08-11T11:08:12.187Z,36.65
2022-08-11T11:09:12.172Z,36.82
2022-08-11T11:10:12.175Z,36.15
2022-08-11T11:11:12.156Z,35.81
2022-08-11T11:12:12.150Z,35.62
2022-08-11T11:13:12.142Z,35.32
2022-08-11T11:14:12.130Z,35.13
2022-08-11T11:15:17.316Z,35.39
2022-08-11T11:16:12.107Z,35.99
2022-08-11T11:17:14.126Z,36.71
2022-08-11T11:18:12.124Z,36.93
2022-08-11T11:19:12.071Z,37.25
2022-08-11T11:20:13.139Z,37.46
2022-08-11T11:21:12.047Z,37.39
2022-08-11T11:22:12.044Z,37.16
2022-08-11T11:23:12.027Z,36.67
2022-08-11T11:24:12.021Z,36.82
2022-08-11T11:25:12.005Z,36.79
2022-08-11T11:26:11.993Z,36.52
2022-08-11T11:27:11.977Z,36.13
2022-08-11T11:28:11.970Z,36.22
2022-08-11T11:29:11.956Z,36.21
2022-08-11T11:30:11.946Z,36.05
2022-08-11T11:31:11.931Z,35.37
2022-08-11T11:32:11.922Z,35.07
2022-08-11T11:33:11.908Z,35.18
2022-08-11T11:34:13.039Z,35.29
2022-08-11T11:35:11.896Z,35.47
2022-08-11T11:36:11.883Z,35.77
2022-08-11T11:37:11.864Z,35.85
2022-08-11T11:38:14.038Z,36.16
2022-08-11T11:39:11.896Z,36.30
2022-08-11T11:40:11.839Z,36.55
2022-08-11T11:41:11.823Z,36.48
2022-08-11T11:42:11.817Z,36.82
2022-08-11T11:43:11.806Z,37.08
2022-08-11T11:44:11.797Z,37.25
2022-08-11T11:45:22.537Z,36.46
2022-08-11T11:46:11.774Z,36.08
2022-08-11T11:47:11.816Z,36.37
2022-08-11T11:48:11.750Z,36.44
2022-08-11T11:49:16.723Z,36.43
2022-08-11T11:50:11.723Z,36.35
2022-08-11T11:51:11.710Z,36.48
2022-08-11T11:52:11.705Z,36.56
2022-08-11T11:53:11.693Z,36.64
2022-08-11T11:54:11.690Z,36.79
2022-08-11T11:55:11.699Z,37.06
2022-08-11T11:56:11.660Z,36.75
2022-08-11T11:57:11.652Z,36.41
2022-08-11T11:58:11.636Z,36.55
2022-08-11T11:59:12.644Z,36.49
2022-08-11T12:00:11.634Z,36.34
2022-08-11T12:01:11.604Z,36.55
2022-08-11T12:02:12.174Z,36.69
2022-08-11T12:03:11.619Z,36.83
2022-08-11T12:04:11.566Z,36.46
2022-08-11T12:05:11.554Z,35.56
2022-08-11T12:06:11.563Z,35.55
2022-08-11T12:07:11.537Z,35.73
2022-08-11T12:08:13.128Z,35.77
2022-08-11T12:09:11.512Z,35.89
2022-08-11T12:10:11.530Z,35.39
2022-08-11T12:11:11.500Z,35.44
2022-08-11T12:12:11.489Z,35.32
2022-08-11T12:13:11.474Z,35.44
2022-08-11T12:14:11.468Z,35.76
2022-08-11T12:15:11.451Z,36.28
2022-08-11T12:16:32.773Z,36.48
2022-08-11T12:17:11.434Z,36.48
2022-08-11T12:18:11.423Z,36.08
2022-08-11T12:19:11.408Z,35.98
2022-08-11T12:20:32.043Z,36.12
2022-08-11T12:21:11.386Z,35.65
2022-08-11T12:22:11.372Z,35.74
2022-08-11T12:23:11.364Z,35.68
2022-08-11T12:24:11.349Z,35.68
2022-08-11T12:25:11.337Z,36.12
2022-08-11T12:26:26.998Z,36.31
2022-08-11T12:27:15.899Z,36.43
2022-08-11T12:28:11.302Z,36.12
2022-08-11T12:29:11.297Z,36.21
2022-08-11T12:30:11.288Z,36.05
2022-08-11T12:31:11.277Z,35.62
2022-08-11T12:32:11.265Z,35.58
2022-08-11T12:33:11.255Z,35.66
2022-08-11T12:34:11.240Z,35.74
2022-08-11T12:35:11.232Z,35.52
2022-08-11T12:36:11.217Z,35.44
2022-08-11T12:37:13.200Z,35.54
2022-08-11T12:38:12.774Z,35.29
2022-08-11T12:39:24.154Z,35.32
2022-08-11T12:40:43.757Z,35.03
2022-08-11T12:41:15.638Z,35.05
2022-08-11T12:42:11.153Z,34.78
2022-08-11T12:43:21.790Z,34.63
2022-08-11T12:44:11.128Z,34.26
2022-08-11T12:45:22.034Z,34.16
2022-08-11T12:46:12.303Z,33.92
2022-08-11T12:47:11.101Z,33.78
2022-08-11T12:48:57.472Z,33.78
2022-08-11T12:49:11.089Z,33.82
2022-08-11T12:50:21.755Z,33.79
2022-08-11T12:51:11.114Z,33.90
2022-08-11T12:52:15.011Z,33.87
2022-08-11T12:53:11.030Z,33.79